Time;durP1;ratioP1;P1;durP2;ratioP2;P2;SDS_P1;SDS_P2;PMS_P1;PMS_P2;Temp;Humidity;BMP_temperature;BMP_pressure;BME280_temperature;BME280_humidity;BME280_pressure;Samples;Min_cycle;Max_cycle;Signal;HPM_P1;HPM_P2
2023/02/19 00:01:33;;;;;;;5.50;5.00;;;11.10;99.90;;;;;;5112725;28;20179;-72
2023/02/19 00:04:01;;;;;;;4.80;4.30;;;11.10;99.90;;;;;;5112516;28;20405;-71
2023/02/19 00:06:29;;;;;;;7.30;4.17;;;11.00;99.90;;;;;;5112356;28;20884;-71
2023/02/19 00:08:55;;;;;;;4.93;3.70;;;11.10;99.90;;;;;;5111740;28;20414;-71
2023/02/19 00:11:23;;;;;;;3.70;3.30;;;11.10;99.90;;;;;;5112867;28;20972;-71
2023/02/19 00:13:51;;;;;;;5.23;4.33;;;11.00;99.90;;;;;;5112434;28;20905;-72
2023/02/19 00:16:27;;;;;;;5.43;4.13;;;10.90;99.90;;;;;;5112483;28;20533;-71
2023/02/19 00:18:54;;;;;;;4.67;4.17;;;10.90;99.90;;;;;;5112310;28;20928;-71
2023/02/19 00:21:20;;;;;;;5.43;4.67;;;10.90;99.90;;;;;;5112467;28;20398;-71
2023/02/19 00:23:57;;;;;;;4.87;4.37;;;10.90;99.90;;;;;;5111890;28;20390;-71
2023/02/19 00:26:22;;;;;;;7.50;4.07;;;10.90;99.90;;;;;;5112165;28;20403;-71
2023/02/19 00:28:49;;;;;;;4.43;4.03;;;10.80;99.90;;;;;;5112114;28;20418;-71
2023/02/19 00:31:18;;;;;;;4.10;3.70;;;10.90;99.90;;;;;;5112297;28;20172;-71
2023/02/19 00:33:45;;;;;;;4.50;4.07;;;10.90;99.90;;;;;;5112198;28;20403;-71
2023/02/19 00:36:11;;;;;;;7.97;4.87;;;11.00;99.90;;;;;;5111924;28;20449;-71
2023/02/19 00:38:38;;;;;;;4.83;3.90;;;10.90;99.90;;;;;;5123831;27;20422;-71
2023/02/19 00:41:17;;;;;;;4.67;4.13;;;10.90;99.90;;;;;;5141626;27;20496;-71
2023/02/19 00:43:46;;;;;;;4.67;4.27;;;11.00;99.90;;;;;;5132914;27;20473;-71
2023/02/19 00:46:12;;;;;;;5.27;4.10;;;10.90;99.90;;;;;;5131464;28;20489;-71
2023/02/19 00:48:37;;;;;;;6.10;4.90;;;10.90;99.90;;;;;;5114751;27;20863;-72
2023/02/19 00:51:03;;;;;;;5.00;4.50;;;11.00;99.90;;;;;;5112115;28;20534;-72
2023/02/19 00:53:28;;;;;;;5.63;5.13;;;10.90;99.90;;;;;;5111777;28;20165;-72
2023/02/19 00:55:54;;;;;;;5.93;4.53;;;10.90;99.90;;;;;;5111945;28;20189;-72
2023/02/19 00:58:19;;;;;;;5.70;4.83;;;10.90;99.90;;;;;;5111713;28;20188;-72
2023/02/19 01:00:45;;;;;;;3.53;3.20;;;10.90;99.90;;;;;;5112054;28;20172;-71
2023/02/19 01:03:12;;;;;;;4.43;3.90;;;10.90;99.90;;;;;;5112142;28;20527;-71
2023/02/19 01:05:37;;;;;;;5.40;4.10;;;10.90;99.90;;;;;;5111944;28;20184;-72
2023/02/19 01:08:03;;;;;;;4.53;3.10;;;10.90;99.90;;;;;;5111645;28;20422;-72
2023/02/19 01:10:28;;;;;;;4.50;3.97;;;10.90;99.90;;;;;;5111923;28;20165;-72
2023/02/19 01:12:54;;;;;;;4.00;3.70;;;11.00;99.90;;;;;;5111895;28;20215;-71
2023/02/19 01:15:19;;;;;;;3.87;3.40;;;11.00;99.90;;;;;;5112175;28;20707;-72
2023/02/19 01:17:45;;;;;;;4.07;3.67;;;11.00;99.90;;;;;;5122466;28;20176;-73
2023/02/19 01:20:10;;;;;;;6.30;5.20;;;10.90;99.90;;;;;;5132403;27;20164;-72
2023/02/19 01:22:36;;;;;;;4.40;4.00;;;10.90;99.90;;;;;;5132344;28;20179;-71
2023/02/19 01:25:01;;;;;;;5.57;4.30;;;11.00;99.90;;;;;;5132390;28;20200;-71
2023/02/19 01:27:27;;;;;;;5.27;4.37;;;11.00;99.90;;;;;;5132137;28;20586;-72
2023/02/19 01:29:52;;;;;;;5.33;3.23;;;11.00;99.90;;;;;;5132103;28;20775;-71
2023/02/19 01:32:18;;;;;;;3.87;3.30;;;11.00;99.90;;;;;;5132089;28;20233;-71
2023/02/19 01:34:43;;;;;;;4.70;3.67;;;11.10;99.90;;;;;;5132240;28;20257;-71
2023/02/19 01:37:10;;;;;;;5.20;4.10;;;11.10;99.90;;;;;;5135143;27;20586;-72
2023/02/19 01:39:37;;;;;;;4.30;3.00;;;11.20;99.90;;;;;;5134686;27;20266;-72
2023/02/19 01:42:11;;;;;;;5.80;4.07;;;11.20;99.90;;;;;;5136018;27;20424;-72
2023/02/19 01:44:37;;;;;;;4.47;3.43;;;11.20;99.90;;;;;;5135861;27;20401;-72
2023/02/19 01:47:02;;;;;;;5.47;4.10;;;11.20;99.90;;;;;;5135118;27;20417;-72
2023/02/19 01:49:38;;;;;;;3.73;3.30;;;11.30;99.90;;;;;;5150656;27;20195;-71
2023/02/19 01:52:25;;;;;;;4.70;3.57;;;11.30;99.90;;;;;;5156651;27;20160;-72
2023/02/19 01:54:53;;;;;;;4.80;3.50;;;11.30;99.90;;;;;;5156441;27;20484;-72
2023/02/19 01:57:22;;;;;;;8.00;3.97;;;11.30;99.90;;;;;;5155971;27;20449;-72
2023/02/19 01:59:53;;;;;;;10.00;4.60;;;11.30;99.90;;;;;;5148330;27;20521;-72
2023/02/19 02:02:20;;;;;;;5.47;4.17;;;11.20;99.90;;;;;;5135494;27;20479;-71
2023/02/19 02:04:45;;;;;;;8.40;3.53;;;11.30;99.90;;;;;;5127727;27;20403;-71
2023/02/19 02:12:40;;;;;;;9.80;4.43;;;11.30;99.90;;;;;;5114689;28;20401;-72
2023/02/19 02:15:06;;;;;;;9.90;4.40;;;11.30;99.90;;;;;;5114686;28;20419;-72
2023/02/19 02:17:56;;;;;;;4.40;3.67;;;11.30;99.90;;;;;;5115893;27;20357;-72
2023/02/19 02:20:36;;;;;;;5.03;3.60;;;11.30;99.90;;;;;;5106702;28;20411;-72
2023/02/19 02:23:22;;;;;;;4.30;3.00;;;11.40;99.90;;;;;;5114629;28;20402;-72
2023/02/19 02:26:08;;;;;;;4.90;4.00;;;11.40;99.90;;;;;;5114500;28;20475;-72
2023/02/19 02:29:03;;;;;;;3.70;2.90;;;11.50;99.90;;;;;;5114254;28;20517;-71
2023/02/19 02:31:45;;;;;;;4.23;3.73;;;11.50;99.90;;;;;;5114418;28;20482;-72
2023/02/19 02:34:16;;;;;;;9.37;3.50;;;11.50;99.90;;;;;;5114478;28;20425;-72
2023/02/19 02:36:46;;;;;;;3.83;3.40;;;11.40;99.90;;;;;;5114310;28;20449;-72
2023/02/19 02:39:15;;;;;;;5.23;3.87;;;11.30;99.90;;;;;;5113779;28;20419;-72
2023/02/19 02:41:43;;;;;;;4.33;3.47;;;11.30;99.90;;;;;;5114004;28;20403;-72
2023/02/19 02:44:09;;;;;;;5.87;4.13;;;11.20;99.90;;;;;;5114087;28;20446;-72
2023/02/19 02:46:39;;;;;;;4.20;3.50;;;11.20;99.90;;;;;;5122309;27;20456;-72
2023/02/19 02:49:11;;;;;;;6.50;4.57;;;11.20;99.90;;;;;;5112143;28;20291;-72
2023/02/19 02:51:48;;;;;;;4.20;3.00;;;11.30;99.90;;;;;;5113855;28;20414;-72
2023/02/19 02:57:08;;;;;;;5.60;3.70;;;11.20;99.90;;;;;;5113939;27;20499;-72
2023/02/19 02:59:38;;;;;;;3.90;3.30;;;11.20;99.90;;;;;;5141045;27;20477;-72
2023/02/19 03:02:13;;;;;;;11.50;4.10;;;11.10;99.90;;;;;;5155172;27;20475;-72
2023/02/19 03:07:54;;;;;;;7.97;4.90;;;11.20;99.90;;;;;;5133911;27;20930;-72
2023/02/19 03:10:44;;;;;;;4.50;3.80;;;11.10;99.90;;;;;;5134231;27;20409;-72
2023/02/19 03:21:45;;;;;;;8.63;4.77;;;11.00;99.90;;;;;;5134367;27;20752;-72
2023/02/19 03:27:00;;;;;;;8.13;4.83;;;11.00;99.90;;;;;;5133884;27;20751;-72
2023/02/19 03:29:30;;;;;;;7.60;5.23;;;11.00;99.90;;;;;;5133890;27;20470;-72
2023/02/19 03:32:03;;;;;;;10.77;6.77;;;10.90;99.90;;;;;;5133846;27;20398;-72
2023/02/19 03:34:34;;;;;;;8.07;4.77;;;11.00;99.90;;;;;;5133763;27;20761;-72
2023/02/19 03:37:11;;;;;;;6.90;4.63;;;11.00;99.90;;;;;;5133176;27;20455;-72
2023/02/19 03:39:43;;;;;;;5.23;4.20;;;11.10;99.90;;;;;;5133514;27;20424;-72
2023/02/19 03:42:21;;;;;;;7.37;5.53;;;11.20;99.90;;;;;;5132389;27;20423;-72
2023/02/19 03:45:09;;;;;;;8.90;4.50;;;11.10;99.90;;;;;;5133612;27;20473;-72
2023/02/19 03:47:47;;;;;;;6.33;5.07;;;11.10;99.90;;;;;;5080351;27;20422;-72
2023/02/19 03:50:17;;;;;;;8.00;5.63;;;11.20;99.90;;;;;;5111681;28;20414;-72
2023/02/19 03:53:10;;;;;;;6.57;5.33;;;11.20;99.90;;;;;;5112797;28;20407;-72
2023/02/19 03:55:56;;;;;;;5.90;4.87;;;11.20;99.90;;;;;;5112804;28;20473;-72
2023/02/19 03:58:49;;;;;;;12.30;5.47;;;11.20;99.90;;;;;;5111707;28;20438;-72
2023/02/19 04:01:25;;;;;;;10.13;5.73;;;11.20;99.90;;;;;;5112471;28;20401;-72
2023/02/19 04:04:00;;;;;;;6.60;5.20;;;11.20;99.90;;;;;;5112730;28;20444;-72
2023/02/19 04:06:28;;;;;;;8.60;6.00;;;11.20;99.90;;;;;;5133293;27;20405;-72
2023/02/19 04:08:58;;;;;;;15.53;9.70;;;11.10;99.90;;;;;;5133929;27;20437;-72
2023/02/19 04:11:26;;;;;;;9.43;5.80;;;11.00;99.90;;;;;;5144696;27;20844;-72
2023/02/19 04:14:05;;;;;;;10.90;5.63;;;11.00;99.90;;;;;;5131710;27;20433;-72
2023/02/19 04:16:33;;;;;;;15.10;6.60;;;10.90;99.90;;;;;;5127735;27;20840;-72
2023/02/19 04:19:05;;;;;;;9.97;5.77;;;10.90;99.90;;;;;;5112086;28;20419;-72
2023/02/19 04:21:32;;;;;;;10.57;5.80;;;10.90;99.90;;;;;;5112654;28;20387;-72
2023/02/19 04:24:01;;;;;;;7.30;5.13;;;10.90;99.90;;;;;;5112107;28;20463;-72
2023/02/19 04:26:27;;;;;;;6.57;5.17;;;10.80;99.90;;;;;;5112531;28;20434;-72
2023/02/19 04:28:53;;;;;;;6.50;4.93;;;10.90;99.90;;;;;;5112108;28;20932;-72
2023/02/19 04:31:18;;;;;;;7.13;6.23;;;10.90;99.90;;;;;;5112426;28;20414;-72
2023/02/19 04:33:44;;;;;;;9.50;6.30;;;10.80;99.90;;;;;;5112291;28;20230;-72
2023/02/19 04:36:10;;;;;;;14.00;6.50;;;10.70;99.90;;;;;;5112173;28;20199;-72
2023/02/19 04:38:36;;;;;;;9.13;6.70;;;10.80;99.90;;;;;;5111876;28;20185;-72
2023/02/19 04:41:02;;;;;;;9.90;6.47;;;10.80;99.90;;;;;;5112230;28;20410;-73
2023/02/19 04:43:27;;;;;;;15.50;6.27;;;10.80;99.90;;;;;;5112112;28;20172;-72
2023/02/19 04:45:52;;;;;;;13.23;6.27;;;10.80;99.90;;;;;;5123306;28;20187;-72
2023/02/19 04:48:18;;;;;;;10.63;6.00;;;10.80;99.90;;;;;;5132297;27;20554;-72
2023/02/19 04:50:44;;;;;;;9.47;7.13;;;10.70;99.90;;;;;;5132757;27;20181;-72
2023/02/19 04:53:09;;;;;;;11.73;7.33;;;10.70;99.90;;;;;;5132598;28;20231;-72
2023/02/19 04:55:38;;;;;;;11.33;6.80;;;10.70;99.90;;;;;;5132475;27;20172;-72
2023/02/19 04:58:04;;;;;;;13.90;9.50;;;10.70;99.90;;;;;;5132119;28;20187;-72
2023/02/19 05:00:30;;;;;;;7.97;6.77;;;10.70;99.90;;;;;;5132537;28;20402;-72
2023/02/19 05:02:56;;;;;;;10.30;7.20;;;10.70;99.90;;;;;;5132584;27;20565;-72
2023/02/19 05:05:21;;;;;;;9.07;6.40;;;10.60;99.90;;;;;;5119566;28;20403;-72
2023/02/19 05:07:47;;;;;;;7.47;6.63;;;10.60;99.90;;;;;;5111635;28;20176;-72
2023/02/19 05:10:12;;;;;;;11.20;7.53;;;10.60;99.90;;;;;;5112324;28;20520;-72
2023/02/19 05:12:38;;;;;;;10.47;7.00;;;10.70;99.90;;;;;;5114650;28;20176;-72
2023/02/19 05:15:03;;;;;;;10.80;6.50;;;10.70;99.90;;;;;;5122278;27;20182;-73
2023/02/19 05:17:32;;;;;;;9.47;6.73;;;10.70;99.90;;;;;;5136135;27;20201;-73
2023/02/19 05:19:57;;;;;;;9.17;6.30;;;10.70;99.90;;;;;;5146501;27;20206;-72
2023/02/19 05:22:23;;;;;;;12.40;6.87;;;10.70;99.90;;;;;;5136379;27;20406;-72
2023/02/19 05:24:48;;;;;;;10.17;6.93;;;10.80;99.90;;;;;;5136179;27;20180;-72
2023/02/19 05:27:14;;;;;;;12.63;7.23;;;10.70;99.90;;;;;;5135927;27;20247;-72
2023/02/19 05:29:39;;;;;;;10.63;6.00;;;10.70;99.90;;;;;;5136097;27;20715;-72
2023/02/19 05:32:05;;;;;;;10.23;6.07;;;10.70;99.90;;;;;;5134796;27;20520;-72
2023/02/19 05:34:30;;;;;;;9.00;6.90;;;10.70;99.90;;;;;;5134868;27;20179;-72
2023/02/19 05:36:56;;;;;;;13.63;7.53;;;10.70;99.90;;;;;;5134475;27;20203;-73
2023/02/19 05:39:21;;;;;;;15.80;8.40;;;10.70;99.90;;;;;;5135992;27;20181;-73
2023/02/19 05:41:47;;;;;;;11.93;7.23;;;10.70;99.90;;;;;;5135991;27;20166;-72
2023/02/19 05:44:12;;;;;;;15.47;9.97;;;10.70;99.90;;;;;;5134126;27;20224;-72
2023/02/19 05:46:38;;;;;;;15.90;8.60;;;10.70;99.90;;;;;;5115142;28;20164;-72
2023/02/19 05:49:03;;;;;;;13.53;7.10;;;10.70;99.90;;;;;;5114966;28;20258;-72
2023/02/19 05:51:29;;;;;;;11.27;7.90;;;10.60;99.90;;;;;;5115209;28;20731;-72
2023/02/19 05:53:56;;;;;;;10.37;7.60;;;10.60;99.90;;;;;;5115216;28;20171;-73
2023/02/19 05:56:41;;;;;;;9.97;7.80;;;10.50;99.90;;;;;;5115144;27;20249;-73
2023/02/19 05:59:25;;;;;;;9.03;7.20;;;10.50;99.90;;;;;;5114706;28;20426;-73
2023/02/19 06:01:52;;;;;;;8.83;6.73;;;10.50;99.90;;;;;;5121197;27;20489;-72
2023/02/19 06:04:19;;;;;;;7.00;5.77;;;10.50;99.90;;;;;;5117354;27;20411;-73
2023/02/19 06:06:45;;;;;;;16.40;6.97;;;10.50;99.90;;;;;;5114615;28;20410;-73
2023/02/19 06:09:11;;;;;;;13.10;7.90;;;10.40;99.90;;;;;;5114330;28;20479;-72
2023/02/19 06:11:37;;;;;;;12.00;7.97;;;10.30;99.90;;;;;;5114855;28;20823;-72
2023/02/19 06:14:03;;;;;;;11.37;7.23;;;10.30;99.90;;;;;;5114713;28;20457;-72
2023/02/19 06:16:31;;;;;;;7.40;6.53;;;10.30;99.90;;;;;;5113393;28;20454;-72
2023/02/19 06:18:56;;;;;;;8.07;6.27;;;10.30;99.90;;;;;;5117657;27;20518;-72
2023/02/19 06:21:22;;;;;;;9.97;7.37;;;10.30;99.90;;;;;;5114629;28;20474;-72
2023/02/19 06:23:48;;;;;;;10.67;7.30;;;10.30;99.90;;;;;;5120590;27;20574;-72
2023/02/19 06:26:21;;;;;;;15.53;7.23;;;10.30;99.90;;;;;;5145916;27;20167;-72
2023/02/19 06:28:48;;;;;;;20.20;7.03;;;10.40;99.90;;;;;;5134855;27;20550;-72
2023/02/19 06:31:15;;;;;;;9.57;6.13;;;10.30;99.90;;;;;;5134968;27;20401;-73
2023/02/19 06:33:41;;;;;;;8.63;6.80;;;10.30;99.90;;;;;;5131158;27;20414;-73
2023/02/19 06:36:15;;;;;;;13.97;7.30;;;10.30;99.90;;;;;;5114350;28;20587;-72
2023/02/19 06:38:40;;;;;;;12.20;7.30;;;10.30;99.90;;;;;;5112850;28;20188;-73
2023/02/19 06:41:07;;;;;;;12.63;7.50;;;10.30;99.90;;;;;;5114106;28;20915;-73
2023/02/19 06:43:34;;;;;;;9.70;7.30;;;10.30;99.90;;;;;;5114408;28;20883;-72
2023/02/19 06:46:04;;;;;;;8.50;6.10;;;10.40;99.90;;;;;;5114073;28;20407;-73
2023/02/19 06:48:31;;;;;;;16.43;6.73;;;10.40;99.90;;;;;;5113863;28;20774;-73
2023/02/19 06:50:57;;;;;;;8.13;6.30;;;10.30;99.90;;;;;;5114239;27;20407;-73
2023/02/19 06:53:23;;;;;;;9.57;5.80;;;10.30;99.90;;;;;;5114054;28;20417;-72
2023/02/19 06:55:59;;;;;;;13.10;7.57;;;10.40;99.90;;;;;;5113994;28;20488;-73
2023/02/19 06:58:26;;;;;;;13.13;6.30;;;10.40;99.90;;;;;;5113873;28;20180;-72
2023/02/19 07:00:52;;;;;;;9.13;6.77;;;10.30;99.90;;;;;;5119815;27;20771;-72
2023/02/19 07:03:18;;;;;;;9.60;6.30;;;10.40;99.90;;;;;;5113822;28;20402;-72
2023/02/19 07:05:43;;;;;;;11.40;6.20;;;10.40;99.90;;;;;;5113578;28;20411;-72
2023/02/19 07:08:09;;;;;;;13.33;6.10;;;10.40;99.90;;;;;;5113393;28;20177;-72
2023/02/19 07:10:34;;;;;;;8.23;6.00;;;10.40;99.90;;;;;;5113804;28;20662;-72
2023/02/19 07:13:00;;;;;;;7.87;6.80;;;10.40;99.90;;;;;;5113609;28;20180;-72
2023/02/19 07:15:25;;;;;;;12.20;6.33;;;10.40;99.90;;;;;;5113488;28;20651;-72
2023/02/19 07:17:51;;;;;;;8.23;5.80;;;10.40;99.90;;;;;;5113213;28;20213;-72
2023/02/19 07:20:16;;;;;;;11.47;4.90;;;10.40;99.90;;;;;;5113428;28;20164;-72
2023/02/19 07:22:42;;;;;;;8.33;5.60;;;10.50;99.90;;;;;;5113511;28;20523;-72
2023/02/19 07:25:07;;;;;;;8.60;5.90;;;10.50;99.90;;;;;;5113389;28;20161;-73
2023/02/19 07:27:33;;;;;;;10.43;5.53;;;10.50;99.90;;;;;;5113141;28;20644;-73
2023/02/19 07:29:59;;;;;;;7.93;5.27;;;10.50;99.90;;;;;;5114449;27;20189;-72
2023/02/19 07:32:25;;;;;;;12.87;6.60;;;10.50;99.90;;;;;;5114161;27;20324;-73
2023/02/19 07:34:50;;;;;;;11.50;6.47;;;10.60;99.90;;;;;;5115321;27;20494;-73
2023/02/19 07:37:15;;;;;;;11.33;8.10;;;10.60;99.90;;;;;;5144854;27;20722;-73
2023/02/19 07:39:41;;;;;;;10.70;7.17;;;10.70;99.90;;;;;;5133739;27;20177;-73
2023/02/19 07:42:07;;;;;;;8.07;5.50;;;10.80;99.90;;;;;;5133663;27;20161;-72
2023/02/19 07:44:32;;;;;;;8.63;6.03;;;10.90;99.90;;;;;;5133338;27;20192;-72
2023/02/19 07:46:58;;;;;;;10.00;7.13;;;11.00;99.90;;;;;;5133207;27;20191;-73
2023/02/19 07:49:23;;;;;;;10.37;6.50;;;11.00;99.90;;;;;;5133423;27;20730;-73
2023/02/19 07:51:49;;;;;;;10.70;6.57;;;11.00;99.90;;;;;;5133440;27;20168;-72
2023/02/19 07:54:14;;;;;;;8.43;6.33;;;11.10;99.90;;;;;;5133464;27;20622;-72
2023/02/19 07:56:40;;;;;;;11.43;5.80;;;11.00;99.90;;;;;;5133309;27;20192;-73
2023/02/19 07:59:05;;;;;;;13.93;5.37;;;11.00;99.90;;;;;;5131459;27;20244;-73
2023/02/19 08:04:15;;;;;;;8.27;6.00;;;11.00;99.90;;;;;;5129716;27;20172;-72
2023/02/19 08:06:41;;;;;;;10.33;5.10;;;11.00;99.90;;;;;;5112804;28;20398;-72
2023/02/19 08:09:07;;;;;;;7.13;5.20;;;11.00;99.90;;;;;;5112455;28;20566;-73
2023/02/19 08:14:16;;;;;;;8.30;4.77;;;11.10;99.90;;;;;;5112308;28;20673;-72
2023/02/19 08:16:50;;;;;;;7.77;4.70;;;11.20;99.90;;;;;;5112476;28;20443;-73
2023/02/19 08:19:15;;;;;;;13.33;5.40;;;11.30;99.90;;;;;;5112531;28;20219;-73
2023/02/19 08:21:41;;;;;;;10.77;4.40;;;11.40;99.90;;;;;;5114666;27;20406;-73
2023/02/19 08:24:06;;;;;;;7.47;4.30;;;11.40;99.90;;;;;;5133012;27;20243;-72
2023/02/19 08:26:32;;;;;;;8.93;4.80;;;11.50;99.90;;;;;;5131622;27;20171;-72
2023/02/19 08:28:58;;;;;;;7.40;3.30;;;11.60;99.90;;;;;;5132439;27;20202;-73
2023/02/19 08:31:24;;;;;;;12.37;4.57;;;11.70;99.90;;;;;;5112348;28;20404;-72
2023/02/19 08:33:49;;;;;;;8.20;4.23;;;11.70;99.90;;;;;;5112340;28;20573;-72
2023/02/19 08:36:15;;;;;;;8.13;4.10;;;11.80;99.90;;;;;;5112163;28;20228;-72
2023/02/19 08:38:41;;;;;;;14.07;4.80;;;11.80;99.90;;;;;;5112049;28;20245;-72
2023/02/19 08:41:09;;;;;;;15.10;5.87;;;11.90;99.90;;;;;;5112306;28;20243;-72
2023/02/19 08:43:34;;;;;;;8.03;3.27;;;11.90;99.90;;;;;;5112055;28;20165;-71
2023/02/19 08:46:00;;;;;;;7.40;3.93;;;11.90;99.90;;;;;;5114035;28;20401;-72
2023/02/19 08:48:26;;;;;;;6.47;4.10;;;12.00;99.90;;;;;;5148024;27;20187;-72
2023/02/19 08:50:53;;;;;;;9.30;4.17;;;12.00;99.90;;;;;;5135704;27;20916;-73
2023/02/19 08:53:19;;;;;;;10.73;3.10;;;12.20;99.90;;;;;;5136884;27;20165;-72
2023/02/19 08:55:44;;;;;;;8.83;3.60;;;12.40;99.90;;;;;;5136762;27;20437;-72
2023/02/19 08:58:10;;;;;;;4.13;3.23;;;12.50;99.90;;;;;;5136475;27;20183;-72
2023/02/19 09:00:36;;;;;;;7.23;3.53;;;12.50;99.90;;;;;;5118000;27;20195;-72
2023/02/19 09:03:01;;;;;;;9.00;3.83;;;12.80;99.90;;;;;;5114294;28;20263;-72
2023/02/19 09:05:27;;;;;;;14.00;6.77;;;13.10;99.90;;;;;;5129345;27;20305;-73
2023/02/19 09:07:52;;;;;;;4.10;3.30;;;13.40;99.90;;;;;;5135902;27;20164;-73
2023/02/19 09:10:18;;;;;;;5.90;2.87;;;13.50;99.90;;;;;;5136492;27;20499;-73
2023/02/19 09:12:43;;;;;;;6.57;4.10;;;13.50;99.90;;;;;;5136161;27;20199;-73
2023/02/19 09:15:09;;;;;;;4.37;3.10;;;13.40;99.90;;;;;;5136666;27;20171;-73
2023/02/19 09:17:35;;;;;;;7.83;3.40;;;13.40;99.90;;;;;;5134924;27;20203;-73
2023/02/19 09:20:00;;;;;;;21.27;10.73;;;13.20;99.90;;;;;;5136298;27;20183;-73
2023/02/19 09:22:26;;;;;;;6.83;3.90;;;13.10;99.90;;;;;;5135831;27;20247;-73
2023/02/19 09:24:51;;;;;;;6.00;3.37;;;13.10;99.90;;;;;;5135000;27;20186;-73
2023/02/19 09:27:19;;;;;;;7.63;2.90;;;13.00;99.90;;;;;;5135996;27;20698;-73
2023/02/19 09:29:45;;;;;;;5.47;2.47;;;13.10;99.90;;;;;;5136112;27;20184;-73
2023/02/19 09:32:11;;;;;;;7.47;3.27;;;13.30;99.90;;;;;;5136112;27;20406;-73
2023/02/19 09:34:40;;;;;;;6.93;4.27;;;13.50;99.90;;;;;;5136077;27;20401;-72
2023/02/19 09:37:06;;;;;;;5.27;3.50;;;13.50;99.90;;;;;;5135840;27;20445;-73
2023/02/19 09:39:33;;;;;;;10.83;3.50;;;13.50;99.90;;;;;;5136031;27;20936;-73
2023/02/19 09:42:19;;;;;;;5.13;3.20;;;13.60;99.90;;;;;;5135937;27;20393;-73
2023/02/19 09:44:47;;;;;;;6.30;2.97;;;13.70;99.90;;;;;;5136214;27;20435;-73
2023/02/19 09:47:25;;;;;;;4.70;3.17;;;13.50;99.90;;;;;;5135736;27;20398;-73
2023/02/19 09:49:54;;;;;;;5.60;3.20;;;13.50;99.90;;;;;;5135784;27;20424;-74
2023/02/19 09:52:23;;;;;;;4.90;3.10;;;13.40;99.90;;;;;;5135626;27;20429;-73
2023/02/19 09:54:50;;;;;;;6.47;3.27;;;13.40;99.90;;;;;;5135804;27;20436;-73
2023/02/19 09:57:19;;;;;;;3.90;3.40;;;13.30;99.90;;;;;;5135472;27;20441;-73
2023/02/19 09:59:59;;;;;;;5.67;3.33;;;13.20;99.90;;;;;;5125749;27;20452;-73
2023/02/19 10:02:25;;;;;;;3.27;2.87;;;13.20;99.90;;;;;;5155262;27;21141;-73
2023/02/19 10:04:51;;;;;;;5.03;3.80;;;13.30;99.90;;;;;;5147676;27;20412;-72
2023/02/19 10:07:39;;;;;;;11.80;5.60;;;13.30;99.90;;;;;;5135364;27;20398;-72
2023/02/19 10:10:28;;;;;;;2.80;2.60;;;13.30;99.90;;;;;;5134908;27;20789;-72
2023/02/19 10:13:01;;;;;;;5.07;2.70;;;13.40;99.90;;;;;;5122994;27;20441;-72
2023/02/19 10:15:34;;;;;;;8.10;2.77;;;13.30;99.90;;;;;;5135443;27;20479;-72
2023/02/19 10:18:01;;;;;;;3.73;3.20;;;13.40;99.90;;;;;;5135087;27;20425;-72
2023/02/19 10:20:27;;;;;;;10.43;3.50;;;13.30;99.90;;;;;;5135297;27;21025;-72
2023/02/19 10:23:02;;;;;;;2.60;2.40;;;13.20;99.90;;;;;;5135276;27;20481;-72
2023/02/19 10:25:28;;;;;;;3.10;2.80;;;13.10;99.90;;;;;;5134927;27;20198;-72
2023/02/19 10:27:57;;;;;;;3.70;2.90;;;13.10;99.90;;;;;;5132593;27;20967;-72
2023/02/19 10:30:27;;;;;;;5.60;2.83;;;13.20;99.90;;;;;;5114653;28;20414;-72
2023/02/19 10:33:00;;;;;;;4.23;3.00;;;13.20;99.90;;;;;;5113362;28;20414;-72
2023/02/19 10:35:26;;;;;;;4.80;3.37;;;13.30;99.90;;;;;;5114481;28;20403;-72
2023/02/19 10:37:52;;;;;;;7.50;4.87;;;13.60;99.90;;;;;;5112837;28;20546;-72
2023/02/19 10:40:21;;;;;;;3.63;3.33;;;14.60;99.90;;;;;;5114362;27;20819;-73
2023/02/19 10:42:56;;;;;;;4.77;3.13;;;16.40;99.90;;;;;;5114374;28;20410;-72
2023/02/19 10:45:31;;;;;;;7.33;3.43;;;17.20;99.90;;;;;;5114330;28;20394;-73
2023/02/19 10:47:57;;;;;;;3.90;3.00;;;17.10;99.90;;;;;;5113973;28;20418;-72
2023/02/19 10:50:38;;;;;;;3.37;2.60;;;16.70;99.90;;;;;;5114224;28;20449;-72
2023/02/19 10:53:04;;;;;;;3.97;3.37;;;16.20;99.90;;;;;;5113973;28;20398;-72
2023/02/19 10:55:32;;;;;;;2.73;2.53;;;15.80;99.90;;;;;;5112865;28;20502;-72
2023/02/19 10:58:21;;;;;;;7.43;4.23;;;15.60;99.90;;;;;;5114578;28;20426;-72
2023/02/19 11:00:46;;;;;;;8.13;4.07;;;15.70;99.90;;;;;;5132025;27;20499;-72
2023/02/19 11:03:22;;;;;;;3.10;2.73;;;17.00;99.90;;;;;;5134449;27;20398;-73
2023/02/19 11:06:03;;;;;;;2.80;2.03;;;19.60;99.90;;;;;;5134199;27;20164;-73
2023/02/19 11:08:33;;;;;;;4.80;3.23;;;21.50;99.90;;;;;;5154071;27;20453;-73
2023/02/19 11:10:58;;;;;;;3.50;2.43;;;21.60;99.90;;;;;;5155018;27;20744;-73
2023/02/19 11:13:31;;;;;;;5.23;2.50;;;21.10;99.90;;;;;;5154824;27;20423;-73
2023/02/19 11:15:57;;;;;;;7.80;3.30;;;20.10;99.90;;;;;;5154924;27;20191;-73
2023/02/19 11:18:28;;;;;;;8.60;3.20;;;19.30;99.90;;;;;;5154618;27;20481;-73
2023/02/19 11:21:00;;;;;;;3.30;2.27;;;18.50;99.90;;;;;;5154887;27;20419;-72
2023/02/19 11:23:28;;;;;;;4.30;3.30;;;17.90;99.90;;;;;;5154692;27;20751;-72
2023/02/19 11:25:56;;;;;;;3.70;2.40;;;17.40;99.90;;;;;;5153667;27;20507;-72
2023/02/19 11:28:26;;;;;;;3.20;2.87;;;17.00;99.90;;;;;;5137704;27;20429;-72
2023/02/19 11:30:51;;;;;;;7.70;2.93;;;16.60;99.90;;;;;;5112188;28;20409;-72
2023/02/19 11:33:20;;;;;;;5.17;3.07;;;16.10;99.90;;;;;;5113392;28;20902;-72
2023/02/19 11:35:47;;;;;;;5.43;3.30;;;15.60;99.90;;;;;;5113181;28;20195;-72
2023/02/19 11:38:15;;;;;;;2.60;2.40;;;15.30;99.90;;;;;;5112918;28;20422;-71
2023/02/19 11:40:49;;;;;;;4.93;3.40;;;15.10;99.90;;;;;;5113136;28;20410;-71
2023/02/19 11:43:59;;;;;;;4.23;2.57;;;14.90;99.90;;;;;;5111982;28;20495;-72
2023/02/19 11:46:51;;;;;;;4.40;3.20;;;14.70;99.90;;;;;;5030256;28;21203;-72
2023/02/19 11:49:50;;;;;;;9.00;2.70;;;14.60;99.90;;;;;;5030176;28;20437;-72
2023/02/19 11:52:32;;;;;;;5.50;3.13;;;14.70;99.90;;;;;;5105916;27;20457;-72
2023/02/19 11:55:20;;;;;;;4.40;3.07;;;15.00;99.90;;;;;;5112945;27;20402;-72
2023/02/19 11:57:51;;;;;;;2.70;2.50;;;16.10;99.90;;;;;;5118484;27;20449;-73
2023/02/19 12:00:25;;;;;;;6.20;2.73;;;17.20;99.90;;;;;;5132278;27;20405;-73
2023/02/19 12:03:18;;;;;;;2.87;2.43;;;18.00;99.90;;;;;;5133052;27;20805;-73
2023/02/19 12:06:21;;;;;;;3.20;1.80;;;18.70;99.90;;;;;;5116784;27;20489;-73
2023/02/19 12:09:30;;;;;;;9.03;2.50;;;19.00;99.90;;;;;;5112064;28;20945;-74
2023/02/19 12:12:32;;;;;;;6.93;2.20;;;18.90;99.90;;;;;;5049361;28;20432;-73
2023/02/19 12:15:19;;;;;;;3.40;1.73;;;18.60;99.90;;;;;;5112644;28;20406;-73
2023/02/19 12:18:16;;;;;;;3.13;2.57;;;19.60;99.90;;;;;;5143988;27;20456;-73
2023/02/19 12:20:41;;;;;;;2.83;2.57;;;20.00;99.90;;;;;;5112323;27;20937;-72
2023/02/19 12:23:19;;;;;;;2.73;2.40;;;19.80;99.90;;;;;;5153647;27;20393;-73
2023/02/19 12:26:23;;;;;;;3.40;2.10;;;19.50;99.90;;;;;;5153688;27;20641;-73
2023/02/19 12:29:13;;;;;;;2.90;2.20;;;21.20;99.90;;;;;;5153303;27;20408;-73
2023/02/19 12:31:48;;;;;;;7.47;1.93;;;22.80;99.90;;;;;;5153550;27;20404;-73
2023/02/19 12:34:47;;;;;;;3.77;1.90;;;22.90;95.20;;;;;;5152225;27;20940;-73
2023/02/19 12:37:40;;;;;;;3.43;2.00;;;22.20;89.60;;;;;;5151901;27;20441;-72
2023/02/19 12:40:14;;;;;;;2.33;1.87;;;21.20;89.10;;;;;;5153699;27;20404;-73
2023/02/19 12:42:58;;;;;;;3.60;2.00;;;20.20;90.30;;;;;;5153603;27;20483;-73
2023/02/19 12:45:34;;;;;;;2.83;2.10;;;19.50;93.10;;;;;;5152281;27;20386;-73
2023/02/19 12:48:09;;;;;;;3.97;2.57;;;18.60;96.00;;;;;;5130713;27;20956;-73
2023/02/19 12:50:38;;;;;;;4.33;2.47;;;17.60;99.90;;;;;;5126611;28;20492;-73
2023/02/19 12:53:20;;;;;;;3.20;2.80;;;17.00;99.90;;;;;;5132640;27;20401;-72
2023/02/19 12:55:47;;;;;;;2.60;2.30;;;16.40;99.90;;;;;;5132579;28;20389;-73
2023/02/19 12:58:24;;;;;;;4.07;3.70;;;15.80;99.90;;;;;;5132289;27;20406;-72
2023/02/19 13:00:55;;;;;;;7.30;2.90;;;15.20;99.90;;;;;;5132652;27;20405;-72
2023/02/19 13:03:23;;;;;;;5.63;3.90;;;14.80;99.90;;;;;;5132779;27;20397;-72
2023/02/19 13:05:57;;;;;;;7.63;3.70;;;14.60;99.90;;;;;;5115627;27;20413;-72
2023/02/19 13:08:44;;;;;;;4.23;2.87;;;14.30;99.90;;;;;;5111852;28;20426;-72
2023/02/19 13:11:31;;;;;;;8.53;2.90;;;14.10;99.90;;;;;;5110713;28;20402;-72
2023/02/19 13:14:05;;;;;;;5.90;4.07;;;13.90;99.90;;;;;;5111978;28;20423;-72
2023/02/19 13:16:35;;;;;;;4.00;3.10;;;13.60;99.90;;;;;;5111845;28;20899;-72
2023/02/19 13:19:03;;;;;;;2.60;2.00;;;13.50;99.90;;;;;;5111708;28;20410;-72
2023/02/19 13:24:23;;;;;;;1.77;1.67;;;13.10;99.90;;;;;;5111962;28;20892;-72
2023/02/19 13:27:23;;;;;;;1.87;1.73;;;13.10;99.90;;;;;;5113745;27;20472;-72
2023/02/19 13:30:20;;;;;;;3.00;2.10;;;12.90;99.90;;;;;;5132778;27;20425;-72
2023/02/19 13:33:00;;;;;;;2.53;2.20;;;12.70;99.90;;;;;;5121786;27;20409;-72
2023/02/19 13:35:55;;;;;;;4.50;3.10;;;12.40;99.90;;;;;;5157058;27;20408;-72